Maldives Meteorological Service

SYNOP

Station Code SYNOP
43555
AAXX 26034 43555 41465 72314 10276 20247 30111 40113 72166 8127/ 333 20242 58010 81817 87361 555 10723=
43533
AAXX 26034 43533 42465 72705 10294 20263 30101 40103 8397/ 333 20256 58008 82817 81918 86362 555 10551=
43577
AAXX 26034 43577 42462 72306 10295 20255 30111 40113 82232 333 20247 59003 82818 85363 555 10453=
43588
AAXX 26034 43588 42462 72008 10288 20245 30104 40105 8223/ 333 20240 59013 82818 87362 555 10624=
43599
AAXX 26034 43599 42462 52008 10293 20243 30108 40110 82231 333 20269 59008 83818 555 10510=
Last Updated : 2017-05-26 08:06:41